createdAt,value
2023-05-20T00:02:11.152Z,18.23
2023-05-20T00:04:38.414Z,18.43
2023-05-20T00:07:05.698Z,18.62
2023-05-20T00:09:32.732Z,18.61
2023-05-20T00:11:59.566Z,18.62
2023-05-20T00:14:26.533Z,18.74
2023-05-20T00:16:53.492Z,18.73
2023-05-20T00:19:20.844Z,18.56
2023-05-20T00:21:47.792Z,18.69
2023-05-20T00:24:14.963Z,18.44
2023-05-20T00:26:41.995Z,18.47
2023-05-20T00:29:09.005Z,18.40
2023-05-20T00:31:35.978Z,18.40
2023-05-20T00:34:02.793Z,18.59
2023-05-20T00:36:29.778Z,18.51
2023-05-20T00:38:56.562Z,18.24
2023-05-20T00:41:23.569Z,18.32
2023-05-20T00:43:54.763Z,18.36
2023-05-20T00:46:22.815Z,18.30
2023-05-20T00:48:50.174Z,18.32
2023-05-20T00:51:17.619Z,18.33
2023-05-20T00:53:44.987Z,18.32
2023-05-20T00:56:12.383Z,18.42
2023-05-20T00:58:40.281Z,18.48
2023-05-20T01:01:07.717Z,18.50
2023-05-20T01:03:35.003Z,18.30
2023-05-20T01:06:02.734Z,18.48
2023-05-20T01:08:29.692Z,18.49
2023-05-20T01:11:06.918Z,18.46
2023-05-20T01:13:39.374Z,18.34
2023-05-20T01:16:08.233Z,18.20
2023-05-20T01:18:36.286Z,18.05
2023-05-20T01:21:06.242Z,18.06
2023-05-20T01:23:34.850Z,18.37
2023-05-20T01:26:01.696Z,18.04
2023-05-20T01:28:30.446Z,18.37
2023-05-20T01:31:02.356Z,18.31
2023-05-20T01:33:30.321Z,17.73
2023-05-20T01:35:57.762Z,17.93
2023-05-20T01:38:25.157Z,17.93
2023-05-20T01:40:52.437Z,17.66
2023-05-20T01:43:19.346Z,18.06
2023-05-20T01:45:46.745Z,17.92
2023-05-20T01:48:13.827Z,17.99
2023-05-20T01:50:41.478Z,17.98
2023-05-20T01:53:09.647Z,17.85
2023-05-20T01:55:36.770Z,17.95
2023-05-20T01:58:04.697Z,17.90
2023-05-20T02:00:34.116Z,18.07
2023-05-20T02:03:01.290Z,17.80
2023-05-20T02:05:28.139Z,18.00
2023-05-20T02:07:55.187Z,17.78
2023-05-20T02:10:23.483Z,17.74
2023-05-20T02:12:52.474Z,18.00
2023-05-20T02:15:19.567Z,17.88
2023-05-20T02:17:47.150Z,17.70
2023-05-20T02:20:14.965Z,17.71
2023-05-20T02:22:44.625Z,17.83
2023-05-20T02:25:14.128Z,17.71
2023-05-20T02:27:45.590Z,17.87
2023-05-20T02:30:12.895Z,17.63
2023-05-20T02:32:39.986Z,17.68
2023-05-20T02:35:09.492Z,17.75
2023-05-20T02:37:39.136Z,17.59
2023-05-20T02:40:07.048Z,17.43
2023-05-20T02:42:33.782Z,17.39
2023-05-20T02:45:01.135Z,17.68
2023-05-20T02:47:27.908Z,17.43
2023-05-20T02:49:54.813Z,17.57
2023-05-20T02:52:24.862Z,17.53
2023-05-20T02:54:52.872Z,17.20
2023-05-20T02:57:20.694Z,17.25
2023-05-20T02:59:48.118Z,17.31
2023-05-20T03:02:14.939Z,17.30
2023-05-20T03:04:41.874Z,17.26
2023-05-20T03:07:09.091Z,17.26
2023-05-20T03:09:36.277Z,17.30
2023-05-20T03:12:03.233Z,17.14
2023-05-20T03:14:30.477Z,17.16
2023-05-20T03:16:57.424Z,17.31
2023-05-20T03:19:24.439Z,17.27
2023-05-20T03:21:51.596Z,17.27
2023-05-20T03:24:18.522Z,17.12
2023-05-20T03:26:47.351Z,17.26
2023-05-20T03:29:14.411Z,17.17
2023-05-20T03:31:41.787Z,17.05
2023-05-20T03:34:08.853Z,17.10
2023-05-20T03:36:36.211Z,17.20
2023-05-20T03:39:04.609Z,17.10
2023-05-20T03:41:32.879Z,17.00
2023-05-20T03:43:59.629Z,16.95
2023-05-20T03:46:27.144Z,17.01
2023-05-20T03:48:54.212Z,16.85
2023-05-20T03:51:22.116Z,17.00
2023-05-20T03:53:50.749Z,17.05
2023-05-20T03:56:18.310Z,17.04
2023-05-20T03:58:45.410Z,17.22
2023-05-20T04:01:15.506Z,17.25
2023-05-20T04:03:42.727Z,17.31
2023-05-20T04:06:10.071Z,17.23
2023-05-20T04:08:37.467Z,17.33
2023-05-20T04:11:04.416Z,17.19
2023-05-20T04:13:31.339Z,17.26
2023-05-20T04:15:58.661Z,17.27
2023-05-20T04:18:30.264Z,17.35
2023-05-20T04:20:57.378Z,17.41
2023-05-20T04:23:27.000Z,17.36
2023-05-20T04:25:55.270Z,17.25
2023-05-20T04:28:24.114Z,17.30
2023-05-20T04:31:04.516Z,17.25
2023-05-20T04:33:38.078Z,17.41
2023-05-20T04:36:08.271Z,16.94
2023-05-20T04:38:36.156Z,17.36
2023-05-20T04:41:03.174Z,17.11
2023-05-20T04:43:30.388Z,17.28
2023-05-20T04:45:58.796Z,17.50
2023-05-20T04:48:27.518Z,17.31
2023-05-20T04:50:54.604Z,17.46
2023-05-20T04:53:24.233Z,17.33
2023-05-20T04:55:54.797Z,17.59
2023-05-20T04:58:24.333Z,17.78
2023-05-20T05:00:52.080Z,17.70
2023-05-20T05:03:19.160Z,17.48
2023-05-20T05:05:46.000Z,17.36
2023-05-20T05:08:12.999Z,17.31
2023-05-20T05:10:45.415Z,17.01
2023-05-20T05:13:12.443Z,16.60
2023-05-20T05:15:39.314Z,17.34
2023-05-20T05:18:06.401Z,17.41
2023-05-20T05:20:34.775Z,17.48
2023-05-20T05:23:01.771Z,17.36
2023-05-20T05:25:30.074Z,17.53
2023-05-20T05:27:59.554Z,17.22
2023-05-20T05:30:27.240Z,17.69
2023-05-20T05:32:54.463Z,17.45
2023-05-20T05:35:22.726Z,17.26
2023-05-20T05:37:49.869Z,17.23
2023-05-20T05:40:17.144Z,17.15
2023-05-20T05:42:44.155Z,17.88
2023-05-20T05:45:11.635Z,19.45
2023-05-20T05:47:38.805Z,22.07
2023-05-20T05:50:06.391Z,22.67
2023-05-20T05:52:34.557Z,23.71
2023-05-20T05:55:04.024Z,23.66
2023-05-20T05:57:32.812Z,25.55
2023-05-20T06:00:01.453Z,25.92
2023-05-20T06:02:36.594Z,24.80
2023-05-20T06:05:05.380Z,25.13
2023-05-20T06:07:32.569Z,24.70
2023-05-20T06:09:59.645Z,26.18
2023-05-20T06:12:26.646Z,26.29
2023-05-20T06:14:53.605Z,25.42
2023-05-20T06:17:20.914Z,25.19
2023-05-20T06:19:47.881Z,25.66
2023-05-20T06:22:16.217Z,25.79
2023-05-20T06:24:43.345Z,26.29
2023-05-20T06:27:10.439Z,26.38
2023-05-20T06:29:37.257Z,25.58
2023-05-20T06:32:04.905Z,25.63
2023-05-20T06:34:31.911Z,25.94
2023-05-20T06:36:59.268Z,25.49
2023-05-20T06:39:26.092Z,25.26
2023-05-20T06:41:53.080Z,24.66
2023-05-20T06:44:28.049Z,25.35
2023-05-20T06:47:14.968Z,24.47
2023-05-20T06:49:46.487Z,23.87
2023-05-20T06:52:14.502Z,24.65
2023-05-20T06:54:41.875Z,23.84
2023-05-20T06:57:10.807Z,24.19
2023-05-20T06:59:38.034Z,22.79
2023-05-20T07:02:06.685Z,23.11
2023-05-20T07:04:33.715Z,23.54
2023-05-20T07:07:00.637Z,23.88
2023-05-20T07:09:27.651Z,24.28
2023-05-20T07:11:54.662Z,24.36
2023-05-20T07:14:21.504Z,24.03
2023-05-20T07:16:48.480Z,23.06
2023-05-20T07:19:15.330Z,22.88
2023-05-20T07:21:42.380Z,22.93
2023-05-20T07:24:27.446Z,21.84
2023-05-20T07:26:54.331Z,22.92
2023-05-20T07:29:21.218Z,23.99
2023-05-20T07:31:52.421Z,23.91
2023-05-20T07:34:19.420Z,24.30
2023-05-20T07:36:46.320Z,23.17
2023-05-20T07:39:15.293Z,22.95
2023-05-20T07:41:42.990Z,23.21
2023-05-20T07:44:11.361Z,23.25
2023-05-20T07:46:41.934Z,23.08
2023-05-20T07:49:10.898Z,23.02
2023-05-20T07:51:39.259Z,23.27
2023-05-20T07:54:06.733Z,23.06
2023-05-20T07:56:35.057Z,22.75
2023-05-20T07:59:12.407Z,22.74
2023-05-20T08:01:45.109Z,22.95
2023-05-20T08:04:15.028Z,22.67
2023-05-20T08:06:43.286Z,22.20
2023-05-20T08:09:15.400Z,23.42
2023-05-20T08:11:48.447Z,22.44
2023-05-20T08:14:15.304Z,22.25
2023-05-20T08:16:44.619Z,22.47
2023-05-20T08:19:11.672Z,21.99
2023-05-20T08:21:39.317Z,22.30
2023-05-20T08:24:06.683Z,23.07
2023-05-20T08:26:33.667Z,23.00
2023-05-20T08:29:00.564Z,22.83
2023-05-20T08:31:29.271Z,22.82
2023-05-20T08:33:56.338Z,22.93
2023-05-20T08:36:23.687Z,22.54
2023-05-20T08:38:50.707Z,22.33
2023-05-20T08:41:17.508Z,22.37
2023-05-20T08:43:47.350Z,22.93
2023-05-20T08:46:18.089Z,23.57
2023-05-20T08:48:45.348Z,23.60
2023-05-20T08:51:12.525Z,23.31
2023-05-20T08:53:40.129Z,23.08
2023-05-20T08:56:08.622Z,22.52
2023-05-20T08:58:35.827Z,23.69
2023-05-20T09:01:03.162Z,23.59
2023-05-20T09:03:30.662Z,23.73
2023-05-20T09:06:08.334Z,23.67
2023-05-20T09:08:35.553Z,22.75
2023-05-20T09:11:02.667Z,22.48
2023-05-20T09:13:32.545Z,22.57
2023-05-20T09:16:03.173Z,22.43
2023-05-20T09:18:30.616Z,22.51
2023-05-20T09:20:57.513Z,22.25
2023-05-20T09:23:26.168Z,22.73
2023-05-20T09:25:53.198Z,23.01
2023-05-20T09:28:49.363Z,23.05
2023-05-20T09:31:16.794Z,22.47
2023-05-20T09:33:44.348Z,22.58
2023-05-20T09:36:11.944Z,22.62
2023-05-20T09:39:05.400Z,22.49
2023-05-20T09:41:39.269Z,22.68
2023-05-20T09:44:09.656Z,22.63
2023-05-20T09:46:36.762Z,22.55
2023-05-20T09:49:03.723Z,23.56
2023-05-20T09:51:32.162Z,23.45
2023-05-20T09:53:59.024Z,22.80
2023-05-20T09:56:27.513Z,23.33
2023-05-20T09:58:58.405Z,23.12
2023-05-20T10:01:25.694Z,22.98
2023-05-20T10:03:53.409Z,23.44
2023-05-20T10:06:29.715Z,23.48
2023-05-20T10:09:14.880Z,23.33
2023-05-20T10:12:13.838Z,23.11
2023-05-20T10:15:14.215Z,23.57
2023-05-20T10:17:58.465Z,23.30
2023-05-20T10:20:25.430Z,23.52
2023-05-20T10:22:59.007Z,23.68
2023-05-20T10:25:28.020Z,23.96
2023-05-20T10:28:11.587Z,23.26
2023-05-20T10:30:45.211Z,23.40
2023-05-20T10:33:17.963Z,23.67
2023-05-20T10:35:50.821Z,23.34
2023-05-20T10:38:18.727Z,23.59
2023-05-20T10:40:46.402Z,23.56
2023-05-20T10:43:25.894Z,23.24
2023-05-20T10:45:54.485Z,23.30
2023-05-20T10:48:30.926Z,23.15
2023-05-20T10:50:59.932Z,23.00
2023-05-20T10:53:34.509Z,22.82
2023-05-20T10:56:01.833Z,22.75
2023-05-20T10:58:28.608Z,23.25
2023-05-20T11:00:56.275Z,23.53
2023-05-20T11:03:23.738Z,23.44
2023-05-20T11:05:51.375Z,23.82
2023-05-20T11:08:28.505Z,23.37
2023-05-20T11:10:59.400Z,23.71
2023-05-20T11:13:27.193Z,23.56
2023-05-20T11:15:54.263Z,23.70
2023-05-20T11:18:21.438Z,23.21
2023-05-20T11:20:48.295Z,23.53
2023-05-20T11:23:15.685Z,23.64
2023-05-20T11:25:42.847Z,23.82
2023-05-20T11:28:14.413Z,24.36
2023-05-20T11:30:43.198Z,24.05
2023-05-20T11:33:12.785Z,23.58
2023-05-20T11:35:45.960Z,24.01
2023-05-20T11:38:13.236Z,23.99
2023-05-20T11:40:50.435Z,24.28
2023-05-20T11:43:19.485Z,23.52
2023-05-20T11:45:48.367Z,23.77
2023-05-20T11:48:18.133Z,24.02
2023-05-20T11:50:46.499Z,23.51
2023-05-20T11:53:20.701Z,23.84
2023-05-20T11:55:55.764Z,23.64
2023-05-20T11:58:24.288Z,24.46
2023-05-20T12:00:56.809Z,24.12
2023-05-20T12:03:26.719Z,23.71
2023-05-20T12:05:53.878Z,24.00
2023-05-20T12:08:20.736Z,23.51
2023-05-20T12:10:47.807Z,23.96
2023-05-20T12:13:14.726Z,24.07
2023-05-20T12:15:41.668Z,24.18
2023-05-20T12:18:08.554Z,24.03
2023-05-20T12:20:37.266Z,23.52
2023-05-20T12:23:04.968Z,24.26
2023-05-20T12:25:34.756Z,24.33
2023-05-20T12:28:02.662Z,23.51
2023-05-20T12:30:29.477Z,23.89
2023-05-20T12:32:57.008Z,23.69
2023-05-20T12:35:40.057Z,23.84
2023-05-20T12:38:07.558Z,23.80
2023-05-20T12:40:35.619Z,23.78
2023-05-20T12:43:04.207Z,24.20
2023-05-20T12:45:31.126Z,24.00
2023-05-20T12:47:58.172Z,23.51
2023-05-20T12:50:25.906Z,23.62
2023-05-20T12:52:53.270Z,23.15
2023-05-20T12:55:20.026Z,23.80
2023-05-20T12:57:47.374Z,23.98
2023-05-20T13:00:15.170Z,24.42
2023-05-20T13:02:42.751Z,23.92
2023-05-20T13:05:10.257Z,23.69
2023-05-20T13:07:37.273Z,23.69
2023-05-20T13:10:04.411Z,24.13
2023-05-20T13:12:31.332Z,23.98
2023-05-20T13:14:58.298Z,23.78
2023-05-20T13:17:27.929Z,23.85
2023-05-20T13:19:55.454Z,23.64
2023-05-20T13:22:22.830Z,24.00
2023-05-20T13:24:49.847Z,24.00
2023-05-20T13:27:16.741Z,23.94
2023-05-20T13:29:43.803Z,23.43
2023-05-20T13:32:11.628Z,24.06
2023-05-20T13:34:39.356Z,24.50
2023-05-20T13:37:07.041Z,24.05
2023-05-20T13:39:34.364Z,23.93
2023-05-20T13:42:01.648Z,24.24
2023-05-20T13:44:29.719Z,24.21
2023-05-20T13:46:58.031Z,24.18
2023-05-20T13:49:25.872Z,24.20
2023-05-20T13:51:52.597Z,24.30
2023-05-20T13:54:21.482Z,24.03
2023-05-20T13:56:48.783Z,24.13
2023-05-20T13:59:16.065Z,23.79
2023-05-20T14:01:46.597Z,23.49
2023-05-20T14:04:13.661Z,23.60
2023-05-20T14:06:40.579Z,23.50
2023-05-20T14:09:11.035Z,23.62
2023-05-20T14:11:37.999Z,23.71
2023-05-20T14:14:04.859Z,24.16
2023-05-20T14:16:32.325Z,24.24
2023-05-20T14:18:59.465Z,23.74
2023-05-20T14:21:26.271Z,23.63
2023-05-20T14:23:53.247Z,23.77
2023-05-20T14:26:20.245Z,23.58
2023-05-20T14:28:47.201Z,23.53
2023-05-20T14:31:14.257Z,23.64
2023-05-20T14:33:41.096Z,23.81
2023-05-20T14:36:08.229Z,23.95
2023-05-20T14:38:35.079Z,23.50
2023-05-20T14:41:01.983Z,23.97
2023-05-20T14:43:28.811Z,23.79
2023-05-20T14:45:55.842Z,24.00
2023-05-20T14:48:22.717Z,24.00
2023-05-20T14:50:49.934Z,23.77
2023-05-20T14:53:19.432Z,23.64
2023-05-20T14:55:46.303Z,23.57
2023-05-20T14:58:13.421Z,23.32
2023-05-20T15:00:40.698Z,23.25
2023-05-20T15:03:07.827Z,23.65
2023-05-20T15:05:34.786Z,23.53
2023-05-20T15:08:01.579Z,23.72
2023-05-20T15:10:28.378Z,23.96
2023-05-20T15:12:55.343Z,23.74
2023-05-20T15:15:22.241Z,23.24
2023-05-20T15:17:49.353Z,23.63
2023-05-20T15:20:16.363Z,23.66
2023-05-20T15:22:47.758Z,24.19
2023-05-20T15:25:14.968Z,23.59
2023-05-20T15:27:42.331Z,23.42
2023-05-20T15:30:10.152Z,23.42
2023-05-20T15:32:37.178Z,23.92
2023-05-20T15:35:04.588Z,23.41
2023-05-20T15:37:31.727Z,23.54
2023-05-20T15:39:58.782Z,23.71
2023-05-20T15:42:25.617Z,23.71
2023-05-20T15:44:52.582Z,23.46
2023-05-20T15:47:19.551Z,23.58
2023-05-20T15:49:46.380Z,23.49
2023-05-20T15:52:14.230Z,23.69
2023-05-20T15:54:41.315Z,23.82
2023-05-20T15:57:08.145Z,23.56
2023-05-20T15:59:35.778Z,23.70
2023-05-20T16:02:02.647Z,23.43
2023-05-20T16:04:29.706Z,23.50
2023-05-20T16:06:56.735Z,23.60
2023-05-20T16:09:23.710Z,23.73
2023-05-20T16:11:50.693Z,23.69
2023-05-20T16:14:17.538Z,23.54
2023-05-20T16:16:44.483Z,23.21
2023-05-20T16:19:11.469Z,23.67
2023-05-20T16:21:38.290Z,23.69
2023-05-20T16:24:05.610Z,22.74
2023-05-20T16:26:32.379Z,23.21
2023-05-20T16:28:59.335Z,23.24
2023-05-20T16:31:27.671Z,23.30
2023-05-20T16:33:55.122Z,23.28
2023-05-20T16:36:22.108Z,22.69
2023-05-20T16:38:49.016Z,22.91
2023-05-20T16:41:16.400Z,22.74
2023-05-20T16:43:43.249Z,22.87
2023-05-20T16:46:14.076Z,23.26
2023-05-20T16:48:41.417Z,23.21
2023-05-20T16:51:08.204Z,22.65
2023-05-20T16:53:35.076Z,22.75
2023-05-20T16:56:01.900Z,23.35
2023-05-20T16:58:28.624Z,22.95
2023-05-20T17:00:55.588Z,22.96
2023-05-20T17:03:22.486Z,23.42
2023-05-20T17:05:49.241Z,23.08
2023-05-20T17:08:16.852Z,23.45
2023-05-20T17:10:43.760Z,23.13
2023-05-20T17:13:10.643Z,23.39
2023-05-20T17:15:37.467Z,23.34
2023-05-20T17:18:04.965Z,23.31
2023-05-20T17:20:32.584Z,23.11
2023-05-20T17:22:59.713Z,23.25
2023-05-20T17:25:26.515Z,23.02
2023-05-20T17:27:53.417Z,22.76
2023-05-20T17:30:22.416Z,23.03
2023-05-20T17:32:52.331Z,22.80
2023-05-20T17:35:20.961Z,23.71
2023-05-20T17:37:47.809Z,22.91
2023-05-20T17:40:14.957Z,22.99
2023-05-20T17:42:41.805Z,23.25
2023-05-20T17:45:09.636Z,23.27
2023-05-20T17:47:36.667Z,22.87
2023-05-20T17:50:03.869Z,22.91
2023-05-20T17:52:30.948Z,22.81
2023-05-20T17:54:57.837Z,22.48
2023-05-20T17:57:24.591Z,22.87
2023-05-20T17:59:54.718Z,22.90
2023-05-20T18:02:21.671Z,23.08
2023-05-20T18:04:48.689Z,23.03
2023-05-20T18:07:17.664Z,22.69
2023-05-20T18:09:44.539Z,22.85
2023-05-20T18:12:11.508Z,22.99
2023-05-20T18:14:38.306Z,22.32
2023-05-20T18:17:05.176Z,22.57
2023-05-20T18:19:33.838Z,22.95
2023-05-20T18:22:02.825Z,22.91
2023-05-20T18:24:29.808Z,23.25
2023-05-20T18:26:57.302Z,22.73
2023-05-20T18:29:24.456Z,22.29
2023-05-20T18:31:51.445Z,22.51
2023-05-20T18:34:18.245Z,22.68
2023-05-20T18:36:45.211Z,22.84
2023-05-20T18:39:14.203Z,22.66
2023-05-20T18:44:12.568Z,22.62
2023-05-20T18:46:39.908Z,22.81
2023-05-20T18:49:06.831Z,22.86
2023-05-20T18:51:33.910Z,22.84
2023-05-20T18:54:01.814Z,23.07
2023-05-20T18:56:28.758Z,22.63
2023-05-20T18:58:55.522Z,23.09
2023-05-20T19:01:22.395Z,23.04
2023-05-20T19:03:49.617Z,22.89
2023-05-20T19:06:16.440Z,22.75
2023-05-20T19:08:43.972Z,22.38
2023-05-20T19:11:11.115Z,22.58
2023-05-20T19:13:37.916Z,22.64
2023-05-20T19:16:05.007Z,22.19
2023-05-20T19:18:32.486Z,22.35
2023-05-20T19:20:59.758Z,22.72
2023-05-20T19:23:26.517Z,23.00
2023-05-20T19:25:53.916Z,22.87
2023-05-20T19:28:20.819Z,22.79
2023-05-20T19:30:47.754Z,22.80
2023-05-20T19:33:14.670Z,22.87
2023-05-20T19:35:41.650Z,22.72
2023-05-20T19:38:08.543Z,22.63
2023-05-20T19:40:35.962Z,22.55
2023-05-20T19:43:02.769Z,22.75
2023-05-20T19:45:29.810Z,22.67
2023-05-20T19:47:57.063Z,22.62
2023-05-20T19:50:24.461Z,22.03
2023-05-20T19:52:51.242Z,21.85
2023-05-20T19:55:18.315Z,21.77
2023-05-20T19:57:47.739Z,21.85
2023-05-20T20:00:15.495Z,22.24
2023-05-20T20:02:42.310Z,22.19
2023-05-20T20:05:10.071Z,21.90
2023-05-20T20:07:37.270Z,22.32
2023-05-20T20:10:04.326Z,21.61
2023-05-20T20:12:31.043Z,22.30
2023-05-20T20:14:58.182Z,22.43
2023-05-20T20:17:27.463Z,22.15
2023-05-20T20:19:55.324Z,21.78
2023-05-20T20:22:22.077Z,21.73
2023-05-20T20:24:50.161Z,21.96
2023-05-20T20:27:19.141Z,21.95
2023-05-20T20:29:46.119Z,22.13
2023-05-20T20:32:12.927Z,21.93
2023-05-20T20:34:39.810Z,22.15
2023-05-20T20:37:06.949Z,22.20
2023-05-20T20:39:34.771Z,22.72
2023-05-20T20:42:03.005Z,22.48
2023-05-20T20:44:29.914Z,22.07
2023-05-20T20:46:58.384Z,22.39
2023-05-20T20:49:27.666Z,22.13
2023-05-20T20:51:55.599Z,22.13
2023-05-20T20:54:22.333Z,22.00
2023-05-20T20:56:50.138Z,22.41
2023-05-20T20:59:16.928Z,22.03
2023-05-20T21:01:44.934Z,22.12
2023-05-20T21:04:14.491Z,22.39
2023-05-20T21:06:47.266Z,21.98
2023-05-20T21:09:14.741Z,22.23
2023-05-20T21:11:45.953Z,21.94
2023-05-20T21:14:13.183Z,21.93
2023-05-20T21:16:40.324Z,22.21
2023-05-20T21:19:08.058Z,22.17
2023-05-20T21:21:34.982Z,21.68
2023-05-20T21:24:01.893Z,22.05
2023-05-20T21:26:28.582Z,22.06
2023-05-20T21:28:55.465Z,21.99
2023-05-20T21:31:22.354Z,21.84
2023-05-20T21:33:49.328Z,21.94
2023-05-20T21:36:16.288Z,22.04
2023-05-20T21:38:43.136Z,22.04
2023-05-20T21:41:10.164Z,21.97
2023-05-20T21:43:37.485Z,21.68
2023-05-20T21:46:04.673Z,21.87
2023-05-20T21:48:31.495Z,21.86
2023-05-20T21:50:58.352Z,21.97
2023-05-20T21:53:25.105Z,21.73
2023-05-20T21:55:53.703Z,21.94
2023-05-20T21:58:20.548Z,21.98
2023-05-20T22:00:50.309Z,21.88
2023-05-20T22:03:20.268Z,21.55
2023-05-20T22:05:47.200Z,21.59
2023-05-20T22:08:17.042Z,21.62
2023-05-20T22:10:44.383Z,21.68
2023-05-20T22:13:15.895Z,21.76
2023-05-20T22:15:43.074Z,21.76
2023-05-20T22:18:12.476Z,21.52
2023-05-20T22:20:39.891Z,21.62
2023-05-20T22:23:06.689Z,21.45
2023-05-20T22:25:33.651Z,21.52
2023-05-20T22:28:01.398Z,21.60
2023-05-20T22:30:28.324Z,21.41
2023-05-20T22:32:56.282Z,21.47
2023-05-20T22:35:23.800Z,21.46
2023-05-20T22:37:51.097Z,21.57
2023-05-20T22:40:18.024Z,21.45
2023-05-20T22:42:44.908Z,21.45
2023-05-20T22:45:11.730Z,21.33
2023-05-20T22:47:39.058Z,21.40
2023-05-20T22:50:07.255Z,21.03
2023-05-20T22:52:39.461Z,21.10
2023-05-20T22:55:07.076Z,21.18
2023-05-20T22:57:33.926Z,21.27
2023-05-20T23:00:01.003Z,21.31
2023-05-20T23:02:30.496Z,21.30
2023-05-20T23:04:57.835Z,21.24
2023-05-20T23:07:24.818Z,21.24
2023-05-20T23:09:51.634Z,21.23
2023-05-20T23:12:18.390Z,21.12
2023-05-20T23:14:45.226Z,20.85
2023-05-20T23:17:17.162Z,20.96
2023-05-20T23:19:44.635Z,20.87
2023-05-20T23:22:11.918Z,20.47
2023-05-20T23:24:41.496Z,20.72
2023-05-20T23:27:11.246Z,20.97
2023-05-20T23:29:42.274Z,21.02
2023-05-20T23:32:13.861Z,21.03
2023-05-20T23:34:41.109Z,20.96
2023-05-20T23:37:08.029Z,20.86
2023-05-20T23:39:34.887Z,20.90
2023-05-20T23:42:04.115Z,20.77
2023-05-20T23:44:31.072Z,20.67
2023-05-20T23:46:57.910Z,20.69
2023-05-20T23:49:27.192Z,20.70
2023-05-20T23:51:54.085Z,20.75
2023-05-20T23:54:23.924Z,20.30
2023-05-20T23:56:55.354Z,20.40
2023-05-20T23:59:22.923Z,20.40
